Time;durP1;ratioP1;P1;durP2;ratioP2;P2;SDS_P1;SDS_P2;PMS_P1;PMS_P2;Temp;Humidity;BMP_temperature;BMP_pressure;BME280_temperature;BME280_humidity;BME280_pressure;Samples;Min_cycle;Max_cycle;Signal;HPM_P1;HPM_P2
2022/12/20 00:01:23;;;;;;;26.77;15.75;;;-1.20;99.90;;;;;;5013831;28;20554;-81
2022/12/20 00:03:50;;;;;;;27.50;16.15;;;-1.20;99.90;;;;;;5026527;28;20045;-80
2022/12/20 00:06:17;;;;;;;25.42;15.43;;;-1.10;99.90;;;;;;5021776;28;20049;-81
2022/12/20 00:08:44;;;;;;;33.17;15.50;;;-1.00;99.90;;;;;;5023655;28;20032;-81
2022/12/20 00:11:10;;;;;;;28.08;16.98;;;-1.00;99.90;;;;;;5025831;28;20036;-81
2022/12/20 00:13:35;;;;;;;24.20;14.40;;;-1.00;99.90;;;;;;5032133;28;20025;-81
2022/12/20 00:16:07;;;;;;;30.60;17.40;;;-1.00;99.90;;;;;;5023213;28;20033;-81
2022/12/20 00:18:33;;;;;;;20.63;12.95;;;-0.90;99.90;;;;;;5027724;28;20045;-81
2022/12/20 00:21:00;;;;;;;24.45;15.50;;;-1.00;99.90;;;;;;5019531;28;20529;-81
2022/12/20 00:23:26;;;;;;;28.38;15.43;;;-0.90;99.90;;;;;;5029368;28;20034;-81
2022/12/20 00:25:51;;;;;;;26.85;16.10;;;-1.00;99.90;;;;;;5023675;28;20036;-81
2022/12/20 00:28:17;;;;;;;28.00;14.90;;;-1.00;99.90;;;;;;5021844;28;20121;-81
2022/12/20 00:30:42;;;;;;;29.33;16.35;;;-1.10;99.90;;;;;;5026393;28;20029;-81
2022/12/20 00:33:08;;;;;;;27.33;15.88;;;-1.10;99.90;;;;;;5026353;28;20066;-81
2022/12/20 00:35:34;;;;;;;25.73;15.60;;;-1.10;99.90;;;;;;5023695;28;20061;-81
2022/12/20 00:38:00;;;;;;;27.65;18.65;;;-1.10;99.90;;;;;;5022516;28;20425;-82
2022/12/20 00:40:25;;;;;;;37.90;20.02;;;-1.00;99.90;;;;;;5022869;28;20027;-83
2022/12/20 00:42:51;;;;;;;22.02;15.75;;;-0.90;99.90;;;;;;5020560;28;20041;-82
2022/12/20 00:45:16;;;;;;;28.10;18.35;;;-0.90;99.90;;;;;;5023625;28;20034;-81
2022/12/20 00:47:42;;;;;;;26.83;17.50;;;-0.90;99.90;;;;;;5031518;28;20034;-81
2022/12/20 00:50:07;;;;;;;39.35;18.85;;;-0.90;99.90;;;;;;5021094;28;20041;-81
2022/12/20 00:52:33;;;;;;;34.50;17.05;;;-1.00;99.90;;;;;;5020938;28;20359;-81
2022/12/20 00:54:59;;;;;;;31.67;19.48;;;-1.00;99.90;;;;;;5025402;28;20026;-81
2022/12/20 00:57:24;;;;;;;33.05;17.88;;;-1.00;99.90;;;;;;5022920;28;20052;-81
2022/12/20 00:59:50;;;;;;;30.50;19.55;;;-1.00;99.90;;;;;;5025715;28;20042;-81
2022/12/20 01:02:15;;;;;;;33.28;20.17;;;-0.90;99.90;;;;;;5026773;28;20101;-80
2022/12/20 01:04:41;;;;;;;31.75;17.08;;;-0.80;99.90;;;;;;5022349;28;20026;-81
2022/12/20 01:07:06;;;;;;;32.63;17.27;;;-0.80;99.90;;;;;;5029065;28;20029;-81
2022/12/20 01:09:32;;;;;;;29.17;16.90;;;-0.70;99.90;;;;;;5029893;28;20030;-82
2022/12/20 01:11:57;;;;;;;22.85;14.63;;;-0.60;99.90;;;;;;5029346;28;20062;-81
2022/12/20 01:14:23;;;;;;;31.77;21.60;;;-0.60;99.90;;;;;;5027908;28;20042;-81
2022/12/20 01:16:49;;;;;;;31.13;17.98;;;-0.70;99.90;;;;;;5022081;28;20052;-81
2022/12/20 01:19:16;;;;;;;25.92;15.57;;;-0.70;99.90;;;;;;5022019;28;20029;-81
2022/12/20 01:21:45;;;;;;;24.38;14.77;;;-0.80;99.90;;;;;;5019083;28;20049;-81
2022/12/20 01:24:16;;;;;;;17.98;12.38;;;-0.80;99.90;;;;;;5029431;28;20045;-81
2022/12/20 01:26:41;;;;;;;19.42;14.05;;;-0.90;99.90;;;;;;5021277;28;20036;-81
2022/12/20 01:29:07;;;;;;;13.68;8.52;;;-1.00;99.90;;;;;;5039535;28;20029;-81
2022/12/20 01:31:34;;;;;;;32.17;17.42;;;-1.10;99.90;;;;;;5023546;28;20194;-82
2022/12/20 01:34:00;;;;;;;23.95;15.50;;;-1.00;99.90;;;;;;5022597;28;20433;-81
2022/12/20 01:36:31;;;;;;;33.17;16.60;;;-1.00;99.90;;;;;;5021726;28;20030;-81
2022/12/20 01:38:59;;;;;;;25.73;14.68;;;-0.90;99.90;;;;;;5022948;28;20124;-81
2022/12/20 01:41:25;;;;;;;32.73;16.37;;;-0.90;99.90;;;;;;5019061;28;20037;-82
2022/12/20 01:43:53;;;;;;;27.50;15.45;;;-0.90;99.90;;;;;;5023049;28;20292;-82
2022/12/20 01:46:21;;;;;;;31.63;17.13;;;-0.90;99.90;;;;;;5025949;28;20030;-81
2022/12/20 01:49:07;;;;;;;24.95;13.85;;;-0.90;99.90;;;;;;5021765;28;20284;-81
2022/12/20 01:51:38;;;;;;;27.00;16.73;;;-0.80;99.90;;;;;;5032754;28;20033;-82
2022/12/20 01:54:33;;;;;;;25.35;14.73;;;-0.80;99.90;;;;;;5019360;28;20049;-82
2022/12/20 01:57:02;;;;;;;25.95;14.90;;;-0.70;99.90;;;;;;5016429;28;20137;-81
2022/12/20 01:59:30;;;;;;;24.58;16.40;;;-0.70;99.90;;;;;;5026560;28;20030;-81
2022/12/20 02:01:58;;;;;;;24.60;15.73;;;-0.70;99.90;;;;;;5029290;28;20095;-81
2022/12/20 02:04:23;;;;;;;22.17;12.60;;;-0.60;99.90;;;;;;5030854;28;20028;-82
2022/12/20 02:06:49;;;;;;;29.95;17.73;;;-0.60;99.90;;;;;;5019898;28;20037;-82
2022/12/20 02:09:15;;;;;;;22.58;15.57;;;-0.70;99.90;;;;;;5028356;28;20327;-82
2022/12/20 02:11:59;;;;;;;29.58;16.55;;;-0.60;99.90;;;;;;5021009;28;20034;-81
2022/12/20 02:14:44;;;;;;;24.23;15.77;;;-0.60;99.90;;;;;;5022286;28;20060;-82
2022/12/20 02:17:37;;;;;;;28.20;17.45;;;-0.70;99.90;;;;;;5028782;28;20045;-81
2022/12/20 02:20:06;;;;;;;15.48;12.38;;;-0.70;99.90;;;;;;5021655;28;20095;-81
2022/12/20 02:22:50;;;;;;;;;;;-0.70;99.90;;;;;;5028075;28;20068;-81
2022/12/20 02:25:24;;;;;;;24.40;15.43;;;-0.70;99.90;;;;;;5020756;28;19921;-81
2022/12/20 02:28:08;;;;;;;26.92;15.48;;;-0.70;99.90;;;;;;5023014;28;20944;-81
2022/12/20 02:30:40;;;;;;;24.00;15.35;;;-0.70;99.90;;;;;;5022777;28;20063;-82
2022/12/20 02:33:14;;;;;;;26.98;16.73;;;-0.70;99.90;;;;;;5027017;28;20030;-81
2022/12/20 02:35:40;;;;;;;24.52;15.73;;;-0.90;99.90;;;;;;5036183;28;20033;-81
2022/12/20 02:38:27;;;;;;;23.52;15.18;;;-0.90;99.90;;;;;;5028500;28;20042;-81
2022/12/20 02:41:06;;;;;;;20.92;13.48;;;-0.90;99.90;;;;;;5036393;28;20027;-81
2022/12/20 02:46:21;;;;;;;20.52;14.30;;;-0.70;99.90;;;;;;5026796;28;20045;-82
2022/12/20 02:48:50;;;;;;;23.70;15.95;;;-0.70;99.90;;;;;;5028175;28;20053;-81
2022/12/20 02:51:19;;;;;;;11.15;7.20;;;-0.70;99.90;;;;;;5039601;28;20029;-80
2022/12/20 02:53:46;;;;;;;18.10;10.48;;;-0.80;99.90;;;;;;5025833;28;20028;-79
2022/12/20 02:56:23;;;;;;;27.58;14.98;;;-1.00;99.90;;;;;;5032489;28;20054;-80
2022/12/20 02:58:57;;;;;;;18.63;13.60;;;-0.90;99.90;;;;;;5027700;28;20038;-81
2022/12/20 03:01:33;;;;;;;17.70;10.30;;;-0.90;99.90;;;;;;5025144;28;20037;-79
2022/12/20 03:04:00;;;;;;;22.17;12.30;;;-0.90;99.90;;;;;;5025834;28;20030;-79
2022/12/20 03:06:26;;;;;;;14.85;11.77;;;-0.90;99.90;;;;;;5013075;28;20060;-80
2022/12/20 03:08:51;;;;;;;17.38;10.80;;;-1.10;99.90;;;;;;5028140;28;20030;-80
2022/12/20 03:11:19;;;;;;;21.98;14.13;;;-1.10;99.90;;;;;;5016909;28;21857;-79
2022/12/20 03:13:44;;;;;;;22.00;15.23;;;-1.00;99.90;;;;;;5019628;28;20041;-79
2022/12/20 03:16:10;;;;;;;23.17;14.63;;;-1.00;99.90;;;;;;5037108;28;20998;-80
2022/12/20 03:18:35;;;;;;;30.50;16.33;;;-0.90;99.90;;;;;;5027999;28;20157;-80
2022/12/20 03:21:02;;;;;;;22.60;14.98;;;-1.00;99.90;;;;;;5037778;28;20555;-85
2022/12/20 03:23:27;;;;;;;24.60;15.95;;;-1.00;99.90;;;;;;5037631;28;20747;-85
2022/12/20 03:25:53;;;;;;;21.13;14.25;;;-1.00;99.90;;;;;;5037918;28;20089;-85
2022/12/20 03:28:18;;;;;;;24.38;14.13;;;-1.00;99.90;;;;;;5039401;28;20061;-86
2022/12/20 03:30:44;;;;;;;26.98;14.27;;;-1.00;99.90;;;;;;5039368;28;20025;-82
2022/12/20 03:33:10;;;;;;;20.60;12.25;;;-0.90;99.90;;;;;;5019300;28;20107;-82
2022/12/20 03:35:36;;;;;;;21.08;12.57;;;-0.90;99.90;;;;;;5033086;28;20030;-89
2022/12/20 03:38:01;;;;;;;23.65;12.95;;;-0.80;99.90;;;;;;5038035;28;20046;-88
2022/12/20 03:40:27;;;;;;;28.60;14.75;;;-0.80;99.90;;;;;;5030439;28;20026;-89
2022/12/20 03:42:52;;;;;;;20.17;13.52;;;-0.80;99.90;;;;;;5038876;28;20448;-89
2022/12/20 03:45:18;;;;;;;18.45;13.30;;;-0.70;99.90;;;;;;5045679;28;20033;-89
2022/12/20 03:47:44;;;;;;;16.63;11.52;;;-0.70;99.90;;;;;;5039301;28;20076;-89
2022/12/20 03:50:11;;;;;;;23.50;13.48;;;-0.70;99.90;;;;;;5036235;28;20349;-88
2022/12/20 03:52:36;;;;;;;23.95;14.60;;;-0.70;99.90;;;;;;5042798;28;20030;-88
2022/12/20 03:55:03;;;;;;;21.65;14.80;;;-0.70;99.90;;;;;;5039962;28;20724;-89
2022/12/20 03:57:29;;;;;;;23.00;13.35;;;-0.70;99.90;;;;;;5026082;28;20041;-89
2022/12/20 03:59:55;;;;;;;24.27;13.80;;;-0.70;99.90;;;;;;5043703;28;20028;-88
2022/12/20 04:02:21;;;;;;;17.02;11.32;;;-0.70;99.90;;;;;;5040541;28;20075;-88
2022/12/20 04:04:47;;;;;;;15.35;11.68;;;-0.70;99.90;;;;;;5036650;28;20037;-89
2022/12/20 04:07:12;;;;;;;18.90;12.82;;;-0.70;99.90;;;;;;5046513;28;20030;-90
2022/12/20 04:09:38;;;;;;;26.85;15.40;;;-0.70;99.90;;;;;;5034396;28;20029;-89
2022/12/20 04:12:04;;;;;;;25.40;14.88;;;-0.70;99.90;;;;;;5036016;28;20022;-90
2022/12/20 04:14:30;;;;;;;31.45;16.40;;;-0.70;99.90;;;;;;5037350;28;20038;-89
2022/12/20 04:16:56;;;;;;;20.15;12.23;;;-0.70;99.90;;;;;;5039948;28;20034;-89
2022/12/20 04:19:21;;;;;;;23.13;14.90;;;-0.80;99.90;;;;;;5021791;28;20055;-88
2022/12/20 04:21:47;;;;;;;24.67;14.93;;;-0.80;99.90;;;;;;5044999;28;20040;-89
2022/12/20 04:24:12;;;;;;;17.85;13.45;;;-0.90;99.90;;;;;;5042649;28;20120;-90
2022/12/20 04:26:38;;;;;;;26.80;12.43;;;-0.80;99.90;;;;;;5033938;28;20045;-86
2022/12/20 04:29:04;;;;;;;21.95;13.85;;;-0.70;99.90;;;;;;5022628;28;20036;-86
2022/12/20 04:31:29;;;;;;;22.80;13.30;;;-0.70;99.90;;;;;;5035754;28;20041;-86
2022/12/20 04:33:55;;;;;;;21.80;13.63;;;-0.70;99.90;;;;;;5022118;28;20083;-85
2022/12/20 04:36:21;;;;;;;22.80;13.98;;;-0.80;99.90;;;;;;5021649;28;20089;-86
2022/12/20 04:38:46;;;;;;;13.85;8.88;;;-0.80;99.90;;;;;;5036144;28;20046;-85
2022/12/20 04:41:21;;;;;;;19.92;13.20;;;-0.80;99.90;;;;;;5037104;28;20049;-77
2022/12/20 04:43:57;;;;;;;19.95;12.57;;;-0.80;99.90;;;;;;5036911;28;20139;-77
2022/12/20 04:46:24;;;;;;;29.33;14.50;;;-0.80;99.90;;;;;;5028798;28;20026;-79
2022/12/20 04:48:50;;;;;;;22.50;13.10;;;-0.80;99.90;;;;;;5026819;28;20070;-79
2022/12/20 04:51:16;;;;;;;23.75;13.82;;;-0.80;99.90;;;;;;5037079;28;20089;-80
2022/12/20 04:53:48;;;;;;;23.45;12.02;;;-0.80;99.90;;;;;;5011791;28;20033;-79
2022/12/20 04:56:18;;;;;;;16.23;11.60;;;-0.80;99.90;;;;;;5032832;28;20108;-87
2022/12/20 04:58:45;;;;;;;19.35;11.05;;;-0.70;99.90;;;;;;5035777;28;20056;-87
2022/12/20 05:01:11;;;;;;;17.48;10.93;;;-0.70;99.90;;;;;;5041880;28;20053;-79
2022/12/20 05:03:37;;;;;;;10.40;8.88;;;-0.70;99.90;;;;;;5016954;28;20029;-80
2022/12/20 05:06:04;;;;;;;22.80;12.82;;;-0.80;99.90;;;;;;5029111;28;20040;-79
2022/12/20 05:08:29;;;;;;;25.10;13.57;;;-0.90;99.90;;;;;;5028358;28;20026;-80
2022/12/20 05:10:55;;;;;;;17.02;11.50;;;-1.00;99.90;;;;;;5030401;28;20057;-79
2022/12/20 05:13:21;;;;;;;19.73;11.77;;;-1.00;99.90;;;;;;5035396;28;20025;-79
2022/12/20 05:15:51;;;;;;;21.58;12.57;;;-0.90;99.90;;;;;;5029847;28;20042;-89
2022/12/20 05:18:17;;;;;;;25.70;15.45;;;-1.00;99.90;;;;;;5036084;28;20030;-87
2022/12/20 05:20:43;;;;;;;21.20;12.90;;;-1.00;99.90;;;;;;5028146;28;20035;-86
2022/12/20 05:26:40;;;;;;;16.05;10.88;;;-1.10;99.90;;;;;;5034313;28;20048;-85
2022/12/20 05:28:40;;;;;;;19.05;10.70;;;-1.00;99.90;;;;;;5022832;28;20041;-85
2022/12/20 05:31:06;;;;;;;23.17;12.65;;;-1.20;99.90;;;;;;5028635;28;20048;-81
2022/12/20 05:33:32;;;;;;;18.35;10.77;;;-1.10;99.90;;;;;;5041716;28;20022;-82
2022/12/20 05:35:57;;;;;;;18.75;12.38;;;-1.10;99.90;;;;;;5031331;28;20037;-81
2022/12/20 05:38:23;;;;;;;18.92;12.40;;;-1.10;99.90;;;;;;5028177;28;20168;-81
2022/12/20 05:40:50;;;;;;;15.10;10.30;;;-1.10;99.90;;;;;;5028135;28;20018;-81
2022/12/20 05:43:16;;;;;;;20.52;12.23;;;-1.10;99.90;;;;;;5029584;28;20033;-81
2022/12/20 05:45:51;;;;;;;19.90;12.65;;;-1.10;99.90;;;;;;5033162;28;20026;-81
2022/12/20 05:48:19;;;;;;;15.25;11.93;;;-1.10;99.90;;;;;;5032795;28;20010;-81
2022/12/20 05:50:45;;;;;;;20.55;12.38;;;-1.10;99.90;;;;;;5028729;28;20026;-82
2022/12/20 05:53:12;;;;;;;20.92;12.90;;;-1.20;99.90;;;;;;5029957;28;20385;-81
2022/12/20 05:55:42;;;;;;;15.32;11.85;;;-1.20;99.90;;;;;;5028462;28;20025;-81
2022/12/20 05:58:07;;;;;;;20.27;12.93;;;-1.20;99.90;;;;;;5032918;28;20045;-82
2022/12/20 06:00:33;;;;;;;15.80;11.77;;;-1.20;99.90;;;;;;5030275;28;20093;-81
2022/12/20 06:02:59;;;;;;;18.70;11.57;;;-1.20;99.90;;;;;;5039216;28;20127;-79
2022/12/20 06:05:24;;;;;;;21.60;12.75;;;-1.20;99.90;;;;;;5038869;28;20461;-85
2022/12/20 06:07:50;;;;;;;21.35;12.88;;;-1.30;99.90;;;;;;5028252;28;20030;-85
2022/12/20 06:10:16;;;;;;;22.70;12.30;;;-1.50;99.90;;;;;;5007542;28;20029;-85
2022/12/20 06:12:41;;;;;;;21.13;12.55;;;-1.50;99.90;;;;;;5031064;28;20033;-86
2022/12/20 06:15:08;;;;;;;20.65;11.93;;;-1.50;99.90;;;;;;5040433;28;20404;-85
2022/12/20 06:17:34;;;;;;;20.02;11.73;;;-1.60;99.90;;;;;;5026809;28;20045;-85
2022/12/20 06:20:00;;;;;;;28.10;13.35;;;-1.50;99.90;;;;;;5027252;28;20056;-86
2022/12/20 06:22:25;;;;;;;21.92;11.77;;;-1.50;99.90;;;;;;5037954;28;20029;-77
2022/12/20 06:24:51;;;;;;;19.80;11.55;;;-1.50;99.90;;;;;;5045204;28;20072;-77
2022/12/20 06:27:17;;;;;;;19.23;12.55;;;-1.40;99.90;;;;;;5038446;28;20108;-81
2022/12/20 06:29:50;;;;;;;21.30;12.98;;;-1.40;99.90;;;;;;5034658;28;20056;-81
2022/12/20 06:32:16;;;;;;;21.20;11.65;;;-1.40;99.90;;;;;;5030814;28;20510;-80
2022/12/20 06:34:43;;;;;;;13.32;10.18;;;-1.30;99.90;;;;;;5034794;28;20025;-82
2022/12/20 06:37:09;;;;;;;8.48;7.35;;;-1.30;99.90;;;;;;5026301;28;20046;-81
2022/12/20 06:39:34;;;;;;;13.30;9.98;;;-1.40;99.90;;;;;;5035205;28;20536;-81
2022/12/20 06:42:00;;;;;;;16.73;10.20;;;-1.40;99.90;;;;;;5030276;28;20059;-82
2022/12/20 06:44:25;;;;;;;18.40;12.07;;;-1.40;99.90;;;;;;5011856;28;20029;-82
2022/12/20 06:46:51;;;;;;;15.55;11.50;;;-1.40;99.90;;;;;;5032122;28;20037;-88
2022/12/20 06:49:16;;;;;;;23.52;13.02;;;-1.40;99.90;;;;;;5024897;28;20024;-87
2022/12/20 06:51:43;;;;;;;16.75;10.77;;;-1.30;99.90;;;;;;5033819;28;20036;-87
2022/12/20 06:54:09;;;;;;;21.83;12.15;;;-1.30;99.90;;;;;;5031922;28;20026;-88
2022/12/20 06:56:34;;;;;;;12.35;9.35;;;-1.30;99.90;;;;;;5038350;28;20096;-88
2022/12/20 06:59:01;;;;;;;23.90;12.60;;;-1.30;99.90;;;;;;5045674;28;20068;-88
2022/12/20 07:01:26;;;;;;;16.63;10.40;;;-1.30;99.90;;;;;;5041158;28;20051;-86
2022/12/20 07:03:52;;;;;;;18.33;11.65;;;-1.30;99.90;;;;;;5043377;28;20057;-87
2022/12/20 07:06:17;;;;;;;20.13;10.70;;;-1.20;99.90;;;;;;5034860;28;20032;-90
2022/12/20 07:08:43;;;;;;;19.55;11.73;;;-1.20;99.90;;;;;;5031953;28;20076;-87
2022/12/20 07:11:09;;;;;;;32.83;10.85;;;-1.20;99.90;;;;;;5040504;28;20037;-91
2022/12/20 07:13:35;;;;;;;15.77;10.55;;;-1.20;99.90;;;;;;5044548;28;20037;-87
2022/12/20 07:16:02;;;;;;;19.60;10.90;;;-1.20;99.90;;;;;;5033611;28;20038;-77
2022/12/20 07:18:27;;;;;;;17.15;10.88;;;-1.20;99.90;;;;;;5019522;28;20038;-77
2022/12/20 07:20:53;;;;;;;19.80;11.07;;;-1.20;99.90;;;;;;5030447;28;20038;-79
2022/12/20 07:23:19;;;;;;;19.45;10.95;;;-1.10;99.90;;;;;;5024968;28;20034;-80
2022/12/20 07:25:58;;;;;;;11.27;8.95;;;-1.10;99.90;;;;;;5033570;28;20046;-81
2022/12/20 07:28:26;;;;;;;15.65;10.57;;;-1.10;99.90;;;;;;5027869;28;20060;-81
2022/12/20 07:30:52;;;;;;;22.40;12.30;;;-1.00;99.90;;;;;;5033822;28;20046;-79
2022/12/20 07:33:17;;;;;;;21.17;11.55;;;-1.00;99.90;;;;;;5025354;28;20044;-79
2022/12/20 07:35:45;;;;;;;23.13;12.23;;;-1.00;99.90;;;;;;5035107;28;20025;-89
2022/12/20 07:38:12;;;;;;;23.00;13.18;;;-1.00;99.90;;;;;;5045061;28;20113;-89
2022/12/20 07:40:42;;;;;;;21.33;11.88;;;-1.00;99.90;;;;;;5051165;28;20040;-89
2022/12/20 07:43:10;;;;;;;19.27;13.20;;;-1.00;99.90;;;;;;5040732;28;20036;-88
2022/12/20 07:45:36;;;;;;;21.38;12.13;;;-1.10;99.90;;;;;;5040731;28;20041;-87
2022/12/20 07:48:05;;;;;;;20.98;12.85;;;-1.10;99.90;;;;;;5042755;28;20041;-88
2022/12/20 07:50:33;;;;;;;18.27;12.40;;;-1.10;99.90;;;;;;5044388;28;20037;-88
2022/12/20 07:52:59;;;;;;;31.52;11.93;;;-1.10;99.90;;;;;;5037118;28;20105;-87
2022/12/20 07:55:25;;;;;;;25.73;11.90;;;-1.00;99.90;;;;;;5040218;28;20033;-85
2022/12/20 07:57:56;;;;;;;28.63;16.92;;;-0.90;99.90;;;;;;5038554;28;20054;-87
2022/12/20 08:00:22;;;;;;;25.48;15.68;;;-0.90;99.90;;;;;;5047808;28;20029;-85
2022/12/20 08:02:49;;;;;;;22.73;12.82;;;-0.80;99.90;;;;;;5045702;28;20056;-86
2022/12/20 08:05:16;;;;;;;27.90;16.57;;;-0.70;99.90;;;;;;5043100;28;20080;-86
2022/12/20 08:07:45;;;;;;;27.05;13.85;;;-0.60;99.90;;;;;;5045857;28;20276;-86
2022/12/20 08:10:13;;;;;;;23.80;13.77;;;-0.60;99.90;;;;;;5037906;28;20049;-85
2022/12/20 08:12:40;;;;;;;23.03;13.23;;;-0.60;99.90;;;;;;5054892;28;20040;-87
2022/12/20 08:15:07;;;;;;;18.52;13.02;;;-0.70;99.90;;;;;;5051877;28;20029;-88
2022/12/20 08:17:32;;;;;;;19.15;12.05;;;-0.70;99.90;;;;;;5023277;28;20396;-82
2022/12/20 08:19:59;;;;;;;19.17;12.38;;;-0.70;99.90;;;;;;5043229;28;20060;-83
2022/12/20 08:22:25;;;;;;;20.95;13.90;;;-0.60;99.90;;;;;;5044475;28;20039;-79
2022/12/20 08:24:50;;;;;;;17.52;13.10;;;-0.60;99.90;;;;;;5055966;28;20049;-79
2022/12/20 08:27:16;;;;;;;30.10;13.20;;;-0.60;99.90;;;;;;5039872;28;20026;-79
2022/12/20 08:29:42;;;;;;;18.33;13.32;;;-0.60;99.90;;;;;;5034244;28;20077;-79
2022/12/20 08:32:08;;;;;;;22.73;12.60;;;-0.70;99.90;;;;;;5038796;28;20033;-77
2022/12/20 08:34:34;;;;;;;20.73;11.90;;;-0.70;99.90;;;;;;5032103;28;20032;-77
2022/12/20 08:37:00;;;;;;;18.42;12.68;;;-0.70;99.90;;;;;;5031943;28;20038;-87
2022/12/20 08:39:25;;;;;;;22.77;13.07;;;-0.70;99.90;;;;;;5047207;28;20078;-86
2022/12/20 08:41:51;;;;;;;24.20;13.93;;;-0.70;99.90;;;;;;5057625;28;20033;-82
2022/12/20 08:44:17;;;;;;;29.60;17.10;;;-0.70;99.90;;;;;;5040931;28;20033;-83
2022/12/20 08:46:42;;;;;;;28.15;16.20;;;-0.70;99.90;;;;;;5040873;28;20481;-87
2022/12/20 08:49:08;;;;;;;23.40;16.52;;;-0.50;99.90;;;;;;5030902;28;20072;-87
2022/12/20 08:51:33;;;;;;;31.90;17.48;;;-0.50;99.90;;;;;;5038694;28;20038;-88
2022/12/20 08:53:59;;;;;;;28.23;18.15;;;-0.40;99.90;;;;;;5047831;28;20034;-86
2022/12/20 08:56:24;;;;;;;27.58;15.90;;;-0.40;99.90;;;;;;5048978;28;20025;-87
2022/12/20 08:58:50;;;;;;;22.40;14.30;;;-0.30;99.90;;;;;;5046682;28;20049;-87
2022/12/20 09:01:18;;;;;;;16.60;12.55;;;-0.30;99.90;;;;;;5053432;28;20034;-87
2022/12/20 09:03:44;;;;;;;25.50;16.88;;;-0.20;99.90;;;;;;5054969;28;20049;-86
2022/12/20 09:06:13;;;;;;;24.73;16.13;;;-0.20;99.90;;;;;;5045363;28;20068;-87
2022/12/20 09:08:40;;;;;;;28.67;17.58;;;-0.10;99.90;;;;;;5029641;28;20038;-86
2022/12/20 09:11:11;;;;;;;25.40;17.42;;;-0.10;99.90;;;;;;5050013;28;20037;-86
2022/12/20 09:13:38;;;;;;;24.27;16.98;;;0.00;99.90;;;;;;5054802;28;20030;-87
2022/12/20 09:16:05;;;;;;;21.08;15.18;;;0.00;99.90;;;;;;5044744;28;20033;-86
2022/12/20 09:18:31;;;;;;;31.55;17.90;;;0.00;99.90;;;;;;5050406;28;20037;-86
2022/12/20 09:21:00;;;;;;;26.48;16.77;;;0.00;99.90;;;;;;5047224;28;20037;-87
2022/12/20 09:23:27;;;;;;;26.92;16.98;;;0.00;99.90;;;;;;5049060;28;20030;-87
2022/12/20 09:25:52;;;;;;;25.92;15.70;;;-0.10;99.90;;;;;;5045888;28;20038;-85
2022/12/20 09:28:19;;;;;;;25.38;15.40;;;-0.10;99.90;;;;;;5044150;28;20036;-86
2022/12/20 09:30:44;;;;;;;31.00;17.13;;;0.00;99.90;;;;;;5053236;28;20029;-86
2022/12/20 09:33:10;;;;;;;23.88;13.85;;;0.00;99.90;;;;;;5043565;28;20090;-86
2022/12/20 09:35:36;;;;;;;22.63;14.52;;;0.00;99.90;;;;;;5032892;28;20037;-87
2022/12/20 09:38:01;;;;;;;27.45;15.95;;;0.10;99.90;;;;;;5033325;28;20050;-85
2022/12/20 09:40:31;;;;;;;26.70;15.23;;;0.10;99.90;;;;;;5058132;28;20761;-86
2022/12/20 09:42:57;;;;;;;26.83;16.77;;;0.20;99.90;;;;;;5049874;28;20104;-87
2022/12/20 09:45:30;;;;;;;33.85;17.95;;;0.20;99.90;;;;;;5039723;28;20064;-85
2022/12/20 09:47:55;;;;;;;27.95;15.02;;;0.20;99.90;;;;;;5043432;28;20025;-86
2022/12/20 09:50:36;;;;;;;23.30;14.73;;;0.30;99.90;;;;;;5047392;28;20786;-85
2022/12/20 09:53:16;;;;;;;27.05;15.60;;;0.30;99.90;;;;;;5045094;28;20066;-86
2022/12/20 09:56:02;;;;;;;22.75;14.10;;;0.30;99.90;;;;;;5041552;28;20036;-86
2022/12/20 09:58:55;;;;;;;25.00;15.38;;;0.30;99.90;;;;;;5041265;28;20060;-86
2022/12/20 10:01:23;;;;;;;21.33;14.63;;;0.40;99.90;;;;;;5043028;28;20054;-85
2022/12/20 10:03:50;;;;;;;25.00;16.10;;;0.40;99.90;;;;;;5051494;28;20033;-86
2022/12/20 10:06:41;;;;;;;21.63;13.88;;;0.50;99.90;;;;;;5046719;28;20028;-85
2022/12/20 10:09:18;;;;;;;24.02;13.93;;;0.50;99.90;;;;;;5052263;28;20025;-85
2022/12/20 10:11:58;;;;;;;23.92;14.20;;;0.60;99.90;;;;;;5042226;28;20043;-85
2022/12/20 10:14:40;;;;;;;19.05;13.20;;;0.60;99.90;;;;;;5042743;28;20036;-86
2022/12/20 10:17:30;;;;;;;24.83;14.45;;;0.60;99.90;;;;;;5025071;28;20029;-85
2022/12/20 10:20:17;;;;;;;23.67;15.15;;;0.60;99.90;;;;;;5049988;28;20029;-85
2022/12/20 10:23:06;;;;;;;23.70;14.70;;;0.70;99.90;;;;;;5050114;28;20017;-85
2022/12/20 10:25:32;;;;;;;;;;;0.70;99.90;;;;;;5001988;28;20062;-79
2022/12/20 10:28:01;;;;;;;17.70;11.77;;;0.70;99.90;;;;;;5017004;28;19909;-78
2022/12/20 10:30:28;;;;;;;27.50;16.25;;;0.80;99.90;;;;;;5022541;28;20044;-80
2022/12/20 10:32:56;;;;;;;25.30;15.55;;;0.90;99.90;;;;;;5015844;28;20045;-81
2022/12/20 10:35:37;;;;;;;25.25;16.08;;;0.80;99.90;;;;;;5019757;28;20057;-82
2022/12/20 10:38:12;;;;;;;28.52;18.30;;;0.80;99.90;;;;;;5011794;28;20038;-84
2022/12/20 10:40:59;;;;;;;21.08;13.60;;;0.70;99.90;;;;;;5028798;28;20029;-79
2022/12/20 10:43:26;;;;;;;25.02;14.98;;;0.70;99.90;;;;;;5013186;28;20061;-78
2022/12/20 10:45:59;;;;;;;24.95;16.83;;;0.70;99.90;;;;;;5018930;28;20041;-78
2022/12/20 10:48:27;;;;;;;28.83;16.88;;;0.80;99.90;;;;;;5009314;28;20037;-79
2022/12/20 10:51:02;;;;;;;25.33;15.90;;;0.80;99.90;;;;;;5016798;28;20014;-78
2022/12/20 10:53:29;;;;;;;29.15;18.05;;;0.80;99.90;;;;;;5019183;28;20070;-78
2022/12/20 10:56:20;;;;;;;20.25;14.98;;;0.90;99.90;;;;;;5021147;28;20030;-78
2022/12/20 10:59:20;;;;;;;24.00;15.13;;;0.90;99.90;;;;;;5013843;28;20093;-78
2022/12/20 11:01:47;;;;;;;24.90;17.55;;;0.90;99.90;;;;;;5021967;28;20046;-78
2022/12/20 11:04:30;;;;;;;27.15;17.05;;;0.90;99.90;;;;;;5013783;28;20037;-78
2022/12/20 11:06:56;;;;;;;25.75;15.02;;;0.90;99.90;;;;;;5018678;28;20022;-86
2022/12/20 11:09:27;;;;;;;27.13;17.27;;;1.00;99.90;;;;;;5015895;28;20053;-85
2022/12/20 11:12:19;;;;;;;24.48;16.83;;;1.00;99.90;;;;;;5008575;28;20038;-76
2022/12/20 11:14:46;;;;;;;29.17;18.95;;;1.00;99.90;;;;;;5002455;28;20042;-76
2022/12/20 11:17:11;;;;;;;22.88;16.52;;;1.10;99.90;;;;;;5021700;28;20022;-78
2022/12/20 11:19:45;;;;;;;31.25;17.55;;;1.10;99.90;;;;;;5011160;28;20634;-78
2022/12/20 11:22:31;;;;;;;26.20;16.98;;;1.20;99.90;;;;;;5003871;28;20034;-78
2022/12/20 11:25:21;;;;;;;31.40;18.85;;;1.30;99.90;;;;;;5025573;28;20062;-78
2022/12/20 11:28:12;;;;;;;29.98;17.75;;;1.30;99.90;;;;;;5026417;28;20045;-81
2022/12/20 11:30:45;;;;;;;30.02;18.05;;;1.30;99.90;;;;;;5041981;28;20034;-80
2022/12/20 11:33:33;;;;;;;31.90;19.50;;;1.40;99.90;;;;;;5051225;28;20739;-80
2022/12/20 11:36:10;;;;;;;30.38;17.42;;;1.40;99.90;;;;;;5032339;28;20084;-81
2022/12/20 11:38:48;;;;;;;36.92;18.75;;;1.40;99.90;;;;;;5040459;28;20148;-81
2022/12/20 11:41:26;;;;;;;25.80;19.60;;;1.40;99.90;;;;;;5040032;28;20609;-82
2022/12/20 11:44:03;;;;;;;29.70;17.05;;;1.40;99.90;;;;;;5045053;28;20116;-83
2022/12/20 11:47:06;;;;;;;30.30;18.98;;;1.50;99.90;;;;;;5034366;28;20030;-84
2022/12/20 11:49:57;;;;;;;29.92;18.98;;;1.50;99.90;;;;;;5031586;28;20041;-83
2022/12/20 11:52:34;;;;;;;29.70;17.60;;;1.50;99.90;;;;;;5056357;28;20036;-78
2022/12/20 11:55:12;;;;;;;31.60;18.60;;;1.50;99.90;;;;;;5027466;28;20034;-77
2022/12/20 11:57:51;;;;;;;26.95;16.45;;;1.50;99.90;;;;;;5032938;28;20293;-78
2022/12/20 12:00:17;;;;;;;32.47;16.83;;;1.60;99.90;;;;;;5039305;28;20037;-77
2022/12/20 12:02:49;;;;;;;31.23;19.38;;;1.60;99.90;;;;;;5045115;28;20069;-77
2022/12/20 12:05:23;;;;;;;28.27;18.58;;;1.60;99.90;;;;;;5027909;28;20053;-77
2022/12/20 12:07:57;;;;;;;30.42;18.30;;;1.70;99.90;;;;;;5030077;28;20453;-77
2022/12/20 12:10:38;;;;;;;29.13;18.50;;;1.70;99.90;;;;;;5031930;28;20026;-80
2022/12/20 12:13:16;;;;;;;29.60;18.27;;;1.70;99.90;;;;;;5041311;28;20033;-80
2022/12/20 12:15:56;;;;;;;30.30;18.60;;;1.70;99.90;;;;;;5044630;28;20036;-80
2022/12/20 12:18:28;;;;;;;25.45;17.63;;;1.70;99.90;;;;;;5042489;28;20289;-82
2022/12/20 12:21:07;;;;;;;31.65;17.88;;;1.70;99.90;;;;;;5043856;28;20071;-79
2022/12/20 12:23:52;;;;;;;27.08;17.35;;;1.70;99.90;;;;;;5040446;28;20022;-79
2022/12/20 12:26:33;;;;;;;32.08;19.35;;;1.70;99.90;;;;;;5034080;28;20025;-77
2022/12/20 12:29:03;;;;;;;24.20;17.08;;;1.70;99.90;;;;;;5035794;28;20013;-76
2022/12/20 12:31:47;;;;;;;27.60;16.85;;;1.70;99.90;;;;;;5039251;28;20033;-76
2022/12/20 12:34:29;;;;;;;26.60;17.10;;;1.80;99.90;;;;;;5039114;28;20026;-77
2022/12/20 12:37:20;;;;;;;28.17;18.48;;;1.80;99.90;;;;;;5046307;28;20058;-77
2022/12/20 12:39:45;;;;;;;29.63;17.65;;;1.80;99.90;;;;;;5043250;28;20378;-77
2022/12/20 12:42:17;;;;;;;33.92;18.08;;;1.90;99.90;;;;;;5028992;28;20033;-75
2022/12/20 12:45:17;;;;;;;32.35;18.73;;;1.90;99.90;;;;;;5020030;28;20030;-75
2022/12/20 12:47:50;;;;;;;30.65;19.55;;;1.90;99.90;;;;;;5006097;28;20492;-75
2022/12/20 12:50:26;;;;;;;31.95;18.73;;;2.00;99.90;;;;;;5029565;28;20040;-75